createdAt,value
2022-09-19T00:01:08.646Z,66.40
2022-09-19T00:03:37.760Z,66.30
2022-09-19T00:06:06.149Z,66.30
2022-09-19T00:08:35.394Z,66.40
2022-09-19T00:11:03.264Z,66.90
2022-09-19T00:13:31.993Z,66.80
2022-09-19T00:15:59.938Z,66.50
2022-09-19T00:18:28.379Z,66.20
2022-09-19T00:20:56.298Z,66.10
2022-09-19T00:23:41.638Z,66.30
2022-09-19T00:26:11.742Z,66.60
2022-09-19T00:28:39.742Z,66.40
2022-09-19T00:31:07.766Z,66.40
2022-09-19T00:33:35.737Z,66.40
2022-09-19T00:36:05.021Z,66.60
2022-09-19T00:38:32.936Z,66.90
2022-09-19T00:41:01.065Z,66.80
2022-09-19T00:46:24.477Z,66.70
2022-09-19T00:48:54.863Z,67.10
2022-09-19T00:51:32.867Z,67.10
2022-09-19T00:54:02.283Z,66.70
2022-09-19T00:56:30.204Z,66.30
2022-09-19T00:58:58.568Z,65.80
2022-09-19T01:01:28.227Z,65.50
2022-09-19T01:03:56.603Z,65.40
2022-09-19T01:06:41.026Z,65.70
2022-09-19T01:09:29.736Z,65.90
2022-09-19T01:12:16.824Z,66.50
2022-09-19T01:14:59.526Z,66.50
2022-09-19T01:17:32.535Z,66.30
2022-09-19T01:20:26.448Z,66.40
2022-09-19T01:23:06.759Z,66.60
2022-09-19T01:25:37.732Z,67.00
2022-09-19T01:28:12.005Z,66.80
2022-09-19T01:30:49.078Z,66.80
2022-09-19T01:33:18.876Z,66.80
2022-09-19T01:35:54.762Z,67.00
2022-09-19T01:38:23.600Z,67.10
2022-09-19T01:40:51.815Z,66.80
2022-09-19T01:43:21.581Z,66.30
2022-09-19T01:45:50.395Z,65.80
2022-09-19T01:48:26.044Z,65.60
2022-09-19T01:51:07.324Z,65.60
2022-09-19T01:53:50.896Z,65.70
2022-09-19T01:57:02.705Z,65.90
2022-09-19T01:59:43.837Z,66.50
2022-09-19T02:02:15.300Z,66.50
2022-09-19T02:04:45.554Z,66.50
2022-09-19T02:07:15.381Z,66.50
2022-09-19T02:09:46.096Z,66.70
2022-09-19T02:12:15.248Z,67.00
2022-09-19T02:14:48.222Z,66.90
2022-09-19T02:17:16.904Z,66.70
2022-09-19T02:19:47.121Z,66.70
2022-09-19T02:22:17.081Z,67.20
2022-09-19T02:24:46.495Z,67.10
2022-09-19T02:27:17.374Z,66.80
2022-09-19T02:29:49.405Z,66.30
2022-09-19T02:32:20.835Z,65.80
2022-09-19T02:34:51.802Z,65.60
2022-09-19T02:37:23.136Z,65.50
2022-09-19T02:39:56.451Z,65.70
2022-09-19T02:42:38.485Z,65.90
2022-09-19T02:45:11.247Z,66.50
2022-09-19T02:47:48.887Z,66.60
2022-09-19T02:50:19.104Z,66.40
2022-09-19T02:52:47.245Z,66.50
2022-09-19T02:55:24.708Z,66.60
2022-09-19T02:57:53.700Z,66.90
2022-09-19T03:00:23.179Z,66.80
2022-09-19T03:02:57.462Z,66.40
2022-09-19T03:05:33.602Z,66.00
2022-09-19T03:08:04.213Z,65.70
2022-09-19T03:10:33.920Z,65.70
2022-09-19T03:13:13.921Z,65.90
2022-09-19T03:15:48.382Z,66.10
2022-09-19T03:18:19.508Z,66.40
2022-09-19T03:20:49.151Z,66.70
2022-09-19T03:23:18.671Z,66.60
2022-09-19T03:25:46.514Z,66.60
2022-09-19T03:28:20.449Z,66.60
2022-09-19T03:30:51.149Z,66.90
2022-09-19T03:33:18.993Z,67.00
2022-09-19T03:35:51.815Z,66.80
2022-09-19T03:38:21.016Z,66.80
2022-09-19T03:40:48.963Z,66.80
2022-09-19T03:43:17.429Z,67.10
2022-09-19T03:45:45.506Z,67.10
2022-09-19T03:48:14.875Z,66.70
2022-09-19T03:50:42.730Z,66.30
2022-09-19T03:53:14.919Z,65.70
2022-09-19T03:55:42.946Z,65.50
2022-09-19T03:58:15.799Z,66.20
2022-09-19T04:00:43.684Z,65.60
2022-09-19T04:03:15.190Z,65.90
2022-09-19T04:05:43.536Z,66.20
2022-09-19T04:08:12.226Z,66.50
2022-09-19T04:10:43.439Z,66.40
2022-09-19T04:13:11.558Z,66.40
2022-09-19T04:15:39.853Z,66.50
2022-09-19T04:18:09.593Z,66.70
2022-09-19T04:20:40.309Z,66.90
2022-09-19T04:23:27.726Z,66.80
2022-09-19T04:26:14.556Z,66.70
2022-09-19T04:28:44.185Z,66.70
2022-09-19T04:31:13.519Z,67.00
2022-09-19T04:33:44.231Z,67.20
2022-09-19T04:36:14.053Z,66.80
2022-09-19T04:38:43.902Z,66.30
2022-09-19T04:41:21.944Z,65.80
2022-09-19T04:43:51.351Z,65.60
2022-09-19T04:46:47.508Z,65.50
2022-09-19T04:49:17.411Z,65.60
2022-09-19T04:51:46.688Z,65.80
2022-09-19T04:54:15.825Z,66.30
2022-09-19T04:56:47.603Z,66.40
2022-09-19T04:59:15.694Z,66.30
2022-09-19T05:01:45.822Z,66.30
2022-09-19T05:04:18.011Z,66.40
2022-09-19T05:06:47.291Z,66.90
2022-09-19T05:09:17.408Z,66.90
2022-09-19T05:11:50.033Z,66.60
2022-09-19T05:14:19.712Z,66.30
2022-09-19T05:16:55.142Z,66.10
2022-09-19T05:19:23.553Z,66.20
2022-09-19T05:21:55.559Z,66.50
2022-09-19T05:24:25.052Z,66.30
2022-09-19T05:26:55.627Z,66.40
2022-09-19T05:29:23.498Z,66.30
2022-09-19T05:32:05.915Z,66.70
2022-09-19T05:34:39.719Z,66.90
2022-09-19T05:37:11.547Z,66.70
2022-09-19T05:39:55.616Z,66.70
2022-09-19T05:42:33.538Z,66.60
2022-09-19T05:45:01.468Z,66.80
2022-09-19T05:47:29.325Z,67.10
2022-09-19T05:49:58.253Z,67.70
2022-09-19T05:52:45.004Z,66.40
2022-09-19T05:55:14.537Z,66.10
2022-09-19T05:57:53.119Z,65.70
2022-09-19T06:00:21.352Z,65.60
2022-09-19T06:02:56.266Z,65.80
2022-09-19T06:05:24.336Z,65.90
2022-09-19T06:07:55.187Z,66.40
2022-09-19T06:10:23.056Z,66.60
2022-09-19T06:12:50.996Z,66.40
2022-09-19T06:15:18.872Z,66.50
2022-09-19T06:17:51.059Z,66.60
2022-09-19T06:20:20.745Z,66.80
2022-09-19T06:23:03.418Z,67.00
2022-09-19T06:25:31.785Z,66.70
2022-09-19T06:28:00.361Z,66.40
2022-09-19T06:30:28.542Z,66.20
2022-09-19T06:33:14.838Z,66.00
2022-09-19T06:35:49.810Z,66.40
2022-09-19T06:38:20.904Z,66.30
2022-09-19T06:40:49.955Z,66.20
2022-09-19T06:43:31.098Z,66.30
2022-09-19T06:46:33.134Z,66.70
2022-09-19T06:49:12.297Z,66.90
2022-09-19T06:51:51.680Z,66.70
2022-09-19T06:54:23.201Z,66.70
2022-09-19T06:56:51.856Z,66.80
2022-09-19T06:59:22.900Z,67.20
2022-09-19T07:01:51.007Z,67.00
2022-09-19T07:04:19.644Z,66.90
2022-09-19T07:06:57.766Z,66.80
2022-09-19T07:09:27.002Z,67.00
2022-09-19T07:11:57.759Z,67.40
2022-09-19T07:14:28.471Z,67.10
2022-09-19T07:16:56.460Z,66.60
2022-09-19T07:19:24.486Z,66.10
2022-09-19T07:22:17.409Z,65.90
2022-09-19T07:24:59.162Z,65.70
2022-09-19T07:27:36.679Z,65.70
2022-09-19T07:30:06.941Z,65.90
2022-09-19T07:32:34.978Z,66.50
2022-09-19T07:35:02.866Z,66.60
2022-09-19T07:37:30.736Z,66.60
2022-09-19T07:40:21.928Z,66.60
2022-09-19T07:43:13.874Z,66.60
2022-09-19T07:45:53.324Z,67.10
2022-09-19T07:48:42.173Z,67.10
2022-09-19T07:51:35.116Z,66.60
2022-09-19T07:54:03.356Z,66.40
2022-09-19T07:56:32.603Z,66.20
2022-09-19T07:59:01.079Z,66.60
2022-09-19T08:01:38.520Z,66.60
2022-09-19T08:04:11.462Z,66.40
2022-09-19T08:06:49.537Z,66.60
2022-09-19T08:09:20.209Z,66.60
2022-09-19T08:12:13.406Z,67.00
2022-09-19T08:14:46.543Z,67.00
2022-09-19T08:17:14.722Z,66.90
2022-09-19T08:19:44.450Z,66.90
2022-09-19T08:22:13.275Z,66.80
2022-09-19T08:24:48.609Z,67.30
2022-09-19T08:27:18.735Z,67.20
2022-09-19T08:29:46.982Z,66.90
2022-09-19T08:32:17.428Z,66.60
2022-09-19T08:34:45.348Z,66.30
2022-09-19T08:37:15.304Z,66.30
2022-09-19T08:40:06.405Z,66.70
2022-09-19T08:42:42.830Z,67.30
2022-09-19T08:45:19.123Z,66.50
2022-09-19T08:47:47.052Z,66.60
2022-09-19T08:50:16.620Z,66.70
2022-09-19T08:52:47.543Z,67.20
2022-09-19T08:55:22.808Z,67.00
2022-09-19T08:57:55.335Z,67.00
2022-09-19T09:00:25.286Z,67.00
2022-09-19T09:03:05.418Z,67.00
2022-09-19T09:05:45.411Z,67.40
2022-09-19T09:08:19.684Z,67.10
2022-09-19T09:10:56.249Z,66.90
2022-09-19T09:13:58.299Z,66.40
2022-09-19T09:16:31.855Z,66.10
2022-09-19T09:19:11.611Z,66.10
2022-09-19T09:21:44.007Z,66.30
2022-09-19T09:24:33.153Z,66.50
2022-09-19T09:27:38.897Z,67.00
2022-09-19T09:30:18.647Z,66.80
2022-09-19T09:33:11.402Z,66.90
2022-09-19T09:35:41.010Z,67.00
2022-09-19T09:38:19.101Z,67.40
2022-09-19T09:41:05.992Z,67.50
2022-09-19T09:43:38.281Z,67.00
2022-09-19T09:46:09.958Z,66.50
2022-09-19T09:48:39.776Z,66.20
2022-09-19T09:51:22.102Z,66.10
2022-09-19T09:54:04.559Z,66.10
2022-09-19T09:56:33.615Z,66.30
2022-09-19T09:59:08.567Z,66.60
2022-09-19T10:02:01.046Z,67.00
2022-09-19T10:04:31.996Z,66.90
2022-09-19T10:07:15.880Z,67.00
2022-09-19T10:09:50.831Z,67.00
2022-09-19T10:15:16.963Z,67.50
2022-09-19T10:17:54.858Z,67.20
2022-09-19T10:20:31.564Z,67.20
2022-09-19T10:23:00.153Z,67.20
2022-09-19T10:25:31.238Z,67.30
2022-09-19T10:28:03.487Z,67.70
2022-09-19T10:30:42.690Z,67.40
2022-09-19T10:33:29.143Z,66.90
2022-09-19T10:36:00.246Z,66.50
2022-09-19T10:38:28.636Z,66.20
2022-09-19T10:40:57.635Z,66.90
2022-09-19T10:43:31.853Z,66.30
2022-09-19T10:46:07.457Z,66.50
2022-09-19T10:48:39.649Z,66.80
2022-09-19T10:51:09.284Z,67.10
2022-09-19T10:53:39.722Z,67.00
2022-09-19T10:56:09.653Z,66.90
2022-09-19T10:58:40.832Z,67.00
2022-09-19T11:01:22.171Z,67.40
2022-09-19T11:04:03.765Z,67.50
2022-09-19T11:06:31.903Z,68.00
2022-09-19T11:09:00.774Z,66.80
2022-09-19T11:11:38.570Z,66.40
2022-09-19T11:14:19.198Z,66.20
2022-09-19T11:17:03.066Z,66.20
2022-09-19T11:19:50.904Z,66.30
2022-09-19T11:22:32.356Z,66.60
2022-09-19T11:25:08.438Z,67.10
2022-09-19T11:27:50.425Z,67.00
2022-09-19T11:30:19.825Z,67.00
2022-09-19T11:36:30.702Z,67.50
2022-09-19T11:42:00.222Z,67.20
2022-09-19T11:44:35.309Z,67.20
2022-09-19T11:47:19.366Z,67.30
2022-09-19T11:49:57.027Z,67.70
2022-09-19T11:52:31.201Z,67.60
2022-09-19T11:55:10.894Z,67.20
2022-09-19T11:57:41.645Z,66.70
2022-09-19T12:00:15.101Z,66.40
2022-09-19T12:03:17.589Z,66.20
2022-09-19T12:06:06.000Z,66.30
2022-09-19T12:08:46.529Z,66.50
2022-09-19T12:11:15.996Z,66.90
2022-09-19T12:13:48.942Z,67.10
2022-09-19T12:16:25.717Z,67.00
2022-09-19T12:18:59.307Z,67.00
2022-09-19T12:21:31.861Z,67.70
2022-09-19T12:24:21.743Z,67.50
2022-09-19T12:26:56.333Z,67.40
2022-09-19T12:29:30.182Z,67.20
2022-09-19T12:32:00.689Z,67.10
2022-09-19T12:34:33.689Z,67.20
2022-09-19T12:37:03.809Z,67.70
2022-09-19T12:39:38.307Z,67.60
2022-09-19T12:42:09.844Z,67.30
2022-09-19T12:44:38.936Z,66.90
2022-09-19T12:47:14.543Z,66.40
2022-09-19T12:50:01.109Z,66.20
2022-09-19T12:52:31.491Z,66.20
2022-09-19T12:55:04.705Z,66.40
2022-09-19T12:57:42.524Z,66.60
2022-09-19T13:00:14.249Z,67.20
2022-09-19T13:02:45.143Z,67.10
2022-09-19T13:05:15.119Z,67.10
2022-09-19T13:07:44.977Z,67.00
2022-09-19T13:10:19.551Z,67.20
2022-09-19T13:12:49.785Z,67.60
2022-09-19T13:15:23.601Z,67.50
2022-09-19T13:18:08.851Z,67.20
2022-09-19T13:20:56.616Z,67.00
2022-09-19T13:23:36.659Z,66.90
2022-09-19T13:26:26.018Z,67.20
2022-09-19T13:28:54.573Z,67.10
2022-09-19T13:31:27.281Z,67.00
2022-09-19T13:33:55.994Z,67.10
2022-09-19T13:36:41.891Z,67.10
2022-09-19T13:39:42.997Z,67.50
2022-09-19T13:42:12.383Z,67.40
2022-09-19T13:44:42.910Z,67.00
2022-09-19T13:47:20.779Z,66.60
2022-09-19T13:49:50.430Z,65.70
2022-09-19T13:52:20.055Z,63.20
2022-09-19T13:55:03.058Z,63.80
2022-09-19T13:57:32.838Z,64.00
2022-09-19T14:00:01.814Z,64.10
2022-09-19T14:02:40.773Z,64.20
2022-09-19T14:05:15.813Z,63.60
2022-09-19T14:10:39.198Z,63.50
2022-09-19T14:13:33.756Z,63.80
2022-09-19T14:16:31.321Z,63.70
2022-09-19T14:18:59.833Z,64.40
2022-09-19T14:21:58.330Z,64.00
2022-09-19T14:24:51.564Z,64.10
2022-09-19T14:27:59.517Z,64.20
2022-09-19T14:30:59.553Z,64.00
2022-09-19T14:34:19.149Z,64.20
2022-09-19T14:37:22.780Z,64.30
2022-09-19T14:40:21.055Z,64.40
2022-09-19T14:43:33.579Z,64.30
2022-09-19T14:46:23.667Z,64.00
2022-09-19T14:48:57.277Z,63.50
2022-09-19T14:51:31.956Z,63.00
2022-09-19T14:54:06.188Z,63.00
2022-09-19T14:56:34.592Z,64.10
2022-09-19T14:59:03.310Z,63.60
2022-09-19T15:01:33.918Z,63.80
2022-09-19T15:04:03.249Z,63.80
2022-09-19T15:06:33.352Z,63.90
2022-09-19T15:09:03.054Z,64.00
2022-09-19T15:11:31.169Z,64.00
2022-09-19T15:13:59.053Z,64.20
2022-09-19T15:16:27.082Z,64.20
2022-09-19T15:18:58.546Z,63.90
2022-09-19T15:21:28.409Z,63.80
2022-09-19T15:23:59.197Z,63.50
2022-09-19T15:26:29.235Z,63.60
2022-09-19T15:28:58.912Z,63.50
2022-09-19T15:31:29.803Z,63.60
2022-09-19T15:34:03.247Z,63.70
2022-09-19T15:36:32.789Z,63.90
2022-09-19T15:39:00.654Z,64.00
2022-09-19T15:41:29.611Z,64.00
2022-09-19T15:43:58.058Z,64.00
2022-09-19T15:46:41.416Z,64.00
2022-09-19T15:49:19.742Z,64.10
2022-09-19T15:51:55.954Z,64.20
2022-09-19T15:54:27.830Z,64.30
2022-09-19T15:56:56.485Z,64.30
2022-09-19T15:59:26.175Z,64.00
2022-09-19T16:01:59.339Z,63.50
2022-09-19T16:04:32.780Z,63.20
2022-09-19T16:07:18.444Z,62.90
2022-09-19T16:09:49.395Z,63.10
2022-09-19T16:12:34.060Z,63.30
2022-09-19T16:15:02.597Z,63.60
2022-09-19T16:18:05.772Z,63.80
2022-09-19T16:20:49.850Z,63.80
2022-09-19T16:23:18.223Z,63.90
2022-09-19T16:25:47.298Z,64.00
2022-09-19T16:28:15.489Z,64.10
2022-09-19T16:30:53.771Z,64.10
2022-09-19T16:33:22.043Z,64.00
2022-09-19T16:35:56.590Z,64.10
2022-09-19T16:38:28.057Z,64.10
2022-09-19T16:40:58.450Z,64.30
2022-09-19T16:43:44.142Z,64.20
2022-09-19T16:46:13.769Z,64.20
2022-09-19T16:48:43.709Z,64.20
2022-09-19T16:51:15.835Z,64.30
2022-09-19T16:53:44.595Z,64.30
2022-09-19T16:56:17.801Z,64.30
2022-09-19T16:58:47.837Z,64.20
2022-09-19T17:01:15.850Z,63.80
2022-09-19T17:03:43.805Z,63.60
2022-09-19T17:06:14.568Z,63.00
2022-09-19T17:08:45.860Z,63.00
2022-09-19T17:11:13.825Z,63.00
2022-09-19T17:13:41.769Z,63.30
2022-09-19T17:16:13.366Z,63.50
2022-09-19T17:18:44.124Z,63.90
2022-09-19T17:21:14.522Z,64.00
2022-09-19T17:23:42.432Z,64.00
2022-09-19T17:26:10.314Z,64.10
2022-09-19T17:28:39.667Z,64.20
2022-09-19T17:31:07.770Z,64.30
2022-09-19T17:33:35.817Z,64.10
2022-09-19T17:36:03.918Z,63.80
2022-09-19T17:38:34.646Z,63.50
2022-09-19T17:41:02.590Z,63.60
2022-09-19T17:43:33.029Z,63.70
2022-09-19T17:46:03.769Z,63.70
2022-09-19T17:48:32.440Z,63.70
2022-09-19T17:51:07.266Z,63.90
2022-09-19T17:53:37.838Z,63.90
2022-09-19T17:56:13.436Z,64.00
2022-09-19T17:58:41.361Z,64.00
2022-09-19T18:01:26.943Z,64.00
2022-09-19T18:03:55.713Z,64.10
2022-09-19T18:06:23.892Z,64.20
2022-09-19T18:08:53.170Z,64.10
2022-09-19T18:11:21.470Z,64.20
2022-09-19T18:13:49.359Z,64.00
2022-09-19T18:16:17.325Z,63.70
2022-09-19T18:18:45.337Z,63.30
2022-09-19T18:21:13.256Z,63.00
2022-09-19T18:23:46.276Z,63.00
2022-09-19T18:26:18.178Z,63.10
2022-09-19T18:28:46.403Z,63.50
2022-09-19T18:31:14.689Z,63.70
2022-09-19T18:33:44.211Z,63.80
2022-09-19T18:36:15.352Z,63.80
2022-09-19T18:38:43.416Z,64.00
2022-09-19T18:41:11.673Z,64.10
2022-09-19T18:43:44.078Z,64.10
2022-09-19T18:46:13.316Z,64.00
2022-09-19T18:48:43.531Z,64.10
2022-09-19T18:51:12.921Z,64.30
2022-09-19T18:53:40.903Z,64.20
2022-09-19T18:56:08.984Z,64.30
2022-09-19T18:58:36.974Z,64.30
2022-09-19T19:01:07.270Z,64.10
2022-09-19T19:03:36.609Z,63.80
2022-09-19T19:06:08.667Z,63.80
2022-09-19T19:08:43.481Z,63.80
2022-09-19T19:11:12.172Z,63.90
2022-09-19T19:13:40.610Z,64.70
2022-09-19T19:16:10.999Z,64.60
2022-09-19T19:18:39.101Z,64.60
2022-09-19T19:21:07.824Z,64.60
2022-09-19T19:23:35.887Z,64.70
2022-09-19T19:26:04.054Z,65.40
2022-09-19T19:28:32.043Z,65.20
2022-09-19T19:31:01.083Z,65.10
2022-09-19T19:33:30.399Z,65.10
2022-09-19T19:36:01.936Z,65.20
2022-09-19T19:38:32.977Z,65.90
2022-09-19T19:41:01.951Z,65.80
2022-09-19T19:43:30.143Z,65.60
2022-09-19T19:46:03.172Z,65.20
2022-09-19T19:48:32.623Z,64.80
2022-09-19T19:51:00.825Z,64.50
2022-09-19T19:53:28.876Z,64.50
2022-09-19T19:55:59.875Z,64.60
2022-09-19T19:58:27.878Z,64.80
2022-09-19T20:01:00.379Z,65.60
2022-09-19T20:03:28.484Z,65.40
2022-09-19T20:05:57.725Z,65.40
2022-09-19T20:08:25.664Z,66.20
2022-09-19T20:10:57.138Z,66.20
2022-09-19T20:13:25.135Z,66.20
2022-09-19T20:16:00.601Z,66.00
2022-09-19T20:18:30.379Z,65.60
2022-09-19T20:21:02.280Z,65.40
2022-09-19T20:23:30.206Z,65.20
2022-09-19T20:25:58.107Z,65.60
2022-09-19T20:28:26.032Z,65.60
2022-09-19T20:30:53.894Z,65.40
2022-09-19T20:33:21.920Z,65.40
2022-09-19T20:35:49.772Z,65.50
2022-09-19T20:38:19.019Z,66.00
2022-09-19T20:40:48.049Z,66.10
2022-09-19T20:43:15.955Z,65.90
2022-09-19T20:45:43.912Z,65.80
2022-09-19T20:48:11.846Z,65.80
2022-09-19T20:50:39.714Z,66.20
2022-09-19T20:53:07.920Z,66.60
2022-09-19T20:55:38.314Z,66.30
2022-09-19T20:58:06.183Z,65.90
2022-09-19T21:00:34.374Z,65.40
2022-09-19T21:03:02.854Z,65.10
2022-09-19T21:05:30.980Z,65.00
2022-09-19T21:08:00.713Z,65.10
2022-09-19T21:10:29.040Z,65.30
2022-09-19T21:12:58.290Z,65.60
2022-09-19T21:15:26.305Z,66.10
2022-09-19T21:17:54.177Z,65.90
2022-09-19T21:20:22.036Z,65.90
2022-09-19T21:22:49.877Z,66.00
2022-09-19T21:25:17.969Z,66.30
2022-09-19T21:27:45.860Z,66.40
2022-09-19T21:30:15.518Z,66.10
2022-09-19T21:32:43.406Z,66.10
2022-09-19T21:35:11.581Z,66.10
2022-09-19T21:37:39.482Z,66.40
2022-09-19T21:40:08.724Z,66.80
2022-09-19T21:42:36.629Z,66.60
2022-09-19T21:45:04.956Z,66.10
2022-09-19T21:47:34.301Z,65.60
2022-09-19T21:50:02.421Z,65.30
2022-09-19T21:52:30.269Z,65.00
2022-09-19T21:55:02.485Z,65.30
2022-09-19T21:57:30.889Z,65.40
2022-09-19T21:59:58.798Z,65.80
2022-09-19T22:02:26.769Z,66.20
2022-09-19T22:04:56.136Z,65.90
2022-09-19T22:07:24.085Z,66.00
2022-09-19T22:09:52.008Z,66.00
2022-09-19T22:12:20.002Z,66.60
2022-09-19T22:14:47.836Z,66.60
2022-09-19T22:17:15.753Z,66.20
2022-09-19T22:19:43.588Z,66.20
2022-09-19T22:22:13.027Z,66.30
2022-09-19T22:24:41.488Z,66.80
2022-09-19T22:27:09.982Z,66.80
2022-09-19T22:29:37.887Z,66.40
2022-09-19T22:32:06.744Z,66.00
2022-09-19T22:34:34.917Z,65.40
2022-09-19T22:37:03.289Z,65.00
2022-09-19T22:39:32.533Z,65.00
2022-09-19T22:42:00.427Z,65.70
2022-09-19T22:44:28.390Z,65.20
2022-09-19T22:46:56.296Z,65.80
2022-09-19T22:49:25.133Z,66.00
2022-09-19T22:51:54.775Z,65.90
2022-09-19T22:54:23.225Z,65.90
2022-09-19T22:56:52.443Z,65.90
2022-09-19T22:59:20.375Z,66.40
2022-09-19T23:01:48.304Z,66.60
2022-09-19T23:04:16.362Z,66.40
2022-09-19T23:06:44.216Z,66.30
2022-09-19T23:09:13.568Z,66.30
2022-09-19T23:11:41.796Z,66.70
2022-09-19T23:14:13.415Z,66.70
2022-09-19T23:16:42.007Z,66.30
2022-09-19T23:19:12.801Z,65.90
2022-09-19T23:21:41.936Z,65.60
2022-09-19T23:24:10.291Z,65.50
2022-09-19T23:26:38.675Z,66.00
2022-09-19T23:29:06.816Z,66.00
2022-09-19T23:31:36.415Z,65.80
2022-09-19T23:34:04.443Z,65.90
2022-09-19T23:36:32.953Z,65.90
2022-09-19T23:39:01.370Z,66.50
2022-09-19T23:41:29.382Z,66.40
2022-09-19T23:43:57.891Z,66.30
2022-09-19T23:46:26.063Z,66.30
2022-09-19T23:48:55.329Z,66.30
2022-09-19T23:51:24.766Z,66.80
2022-09-19T23:53:52.792Z,66.90
2022-09-19T23:56:20.933Z,66.50
2022-09-19T23:58:48.906Z,66.00
